Marina Del Rey, California
Current Conditions -  °F | °C
As of 7:51 PM on Tuesday 21 Oct 2014 (Local Time) from KSMO Reporting Station
Clear Clear  
Wind Chill: 21°   Ceiling: Unl
Heat Index: 21°   Visibility: 10mi
Dew Point: 16°   Wind: 5mph
Humidity: 73%   Direction: 250°WSW
Pressure: 29.86"   Gusts: NA
Location:  33.98°N, 118.45°W
Report Text: KSMO 220251Z 25004KT 10SM CLR 21/16 A2986 RMK AO2 SLP108 T02060156 53005
Loading
Personal Weather Stations






























Interactive Weather Map
Tropical Storm Tracking
New forecast layout! Learn more

10-Day Weather Forecast

Advertisements
Track Severe Weather on mobile